createdAt,value
2022-12-14T00:01:23.511Z,17.02
2022-12-14T00:03:51.043Z,14.32
2022-12-14T00:06:19.589Z,16.55
2022-12-14T00:08:48.808Z,15.43
2022-12-14T00:11:16.641Z,13.52
2022-12-14T00:13:44.971Z,14.32
2022-12-14T00:16:18.011Z,14.65
2022-12-14T00:18:46.177Z,13.27
2022-12-14T00:21:14.629Z,10.95
2022-12-14T00:23:42.572Z,14.70
2022-12-14T00:26:12.660Z,17.25
2022-12-14T00:28:40.094Z,11.77
2022-12-14T00:31:07.516Z,11.75
2022-12-14T00:33:35.404Z,11.98
2022-12-14T00:36:02.976Z,12.27
2022-12-14T00:38:30.496Z,13.45
2022-12-14T00:40:58.284Z,11.73
2022-12-14T00:43:26.999Z,13.90
2022-12-14T00:45:54.732Z,14.55
2022-12-14T00:48:22.622Z,12.57
2022-12-14T00:50:50.758Z,15.43
2022-12-14T00:53:18.246Z,12.43
2022-12-14T00:55:48.912Z,15.13
2022-12-14T00:58:18.336Z,14.82
2022-12-14T01:00:47.201Z,12.85
2022-12-14T01:03:14.592Z,14.57
2022-12-14T01:05:41.940Z,12.15
2022-12-14T01:08:16.671Z,15.20
2022-12-14T01:10:44.117Z,13.27
2022-12-14T01:13:11.487Z,12.45
2022-12-14T01:15:38.894Z,13.32
2022-12-14T01:18:07.808Z,12.25
2022-12-14T01:20:35.111Z,10.95
2022-12-14T01:23:02.516Z,13.13
2022-12-14T01:25:29.863Z,12.65
2022-12-14T01:27:57.246Z,14.07
2022-12-14T01:30:24.675Z,12.30
2022-12-14T01:32:52.004Z,14.05
2022-12-14T01:35:20.662Z,13.35
2022-12-14T01:37:49.061Z,10.02
2022-12-14T01:40:17.809Z,11.85
2022-12-14T01:42:45.176Z,19.13
2022-12-14T01:45:18.233Z,13.80
2022-12-14T01:47:47.376Z,12.10
2022-12-14T01:50:17.576Z,13.02
2022-12-14T01:52:47.882Z,15.77
2022-12-14T01:55:16.840Z,11.43
2022-12-14T01:57:47.069Z,13.43
2022-12-14T02:00:18.068Z,15.20
2022-12-14T02:02:46.942Z,15.45
2022-12-14T02:05:17.124Z,17.42
2022-12-14T02:07:48.964Z,12.90
2022-12-14T02:10:16.868Z,16.02
2022-12-14T02:12:46.356Z,14.93
2022-12-14T02:15:14.091Z,15.20
2022-12-14T02:17:42.616Z,16.05
2022-12-14T02:20:10.432Z,12.35
2022-12-14T02:23:04.775Z,16.27
2022-12-14T02:25:49.555Z,14.02
2022-12-14T02:28:27.712Z,16.20
2022-12-14T02:30:57.918Z,14.88
2022-12-14T02:33:31.353Z,15.85
2022-12-14T02:36:00.795Z,13.85
2022-12-14T02:38:31.701Z,13.85
2022-12-14T02:41:03.501Z,15.20
2022-12-14T02:43:33.585Z,13.73
2022-12-14T02:46:07.020Z,15.95
2022-12-14T02:48:41.603Z,17.53
2022-12-14T02:51:14.734Z,13.55
2022-12-14T02:53:44.403Z,13.38
2022-12-14T02:56:15.816Z,13.23
2022-12-14T02:58:46.573Z,17.83
2022-12-14T03:01:21.997Z,13.68
2022-12-14T03:03:49.781Z,13.38
2022-12-14T03:06:27.964Z,16.27
2022-12-14T03:08:58.088Z,13.93
2022-12-14T03:11:34.200Z,15.65
2022-12-14T03:14:04.229Z,15.35
2022-12-14T03:16:35.430Z,16.20
2022-12-14T03:19:05.446Z,15.00
2022-12-14T03:21:35.122Z,12.18
2022-12-14T03:24:05.608Z,16.27
2022-12-14T03:26:35.332Z,14.57
2022-12-14T03:29:05.693Z,13.07
2022-12-14T03:31:37.294Z,14.73
2022-12-14T03:34:06.083Z,13.93
2022-12-14T03:36:43.455Z,13.27
2022-12-14T03:39:13.221Z,15.27
2022-12-14T03:41:48.975Z,12.75
2022-12-14T03:44:23.643Z,13.88
2022-12-14T03:49:21.332Z,12.88
2022-12-14T03:51:53.290Z,11.85
2022-12-14T03:54:23.543Z,12.57
2022-12-14T03:56:53.576Z,15.15
2022-12-14T03:59:25.948Z,14.32
2022-12-14T04:01:57.368Z,13.35
2022-12-14T04:04:28.669Z,12.00
2022-12-14T04:06:59.632Z,13.73
2022-12-14T04:09:30.521Z,13.63
2022-12-14T04:12:19.229Z,13.98
2022-12-14T04:15:06.197Z,14.60
2022-12-14T04:17:52.719Z,10.93
2022-12-14T04:20:24.506Z,12.40
2022-12-14T04:22:53.890Z,12.48
2022-12-14T04:25:52.260Z,14.25
2022-12-14T04:28:39.082Z,14.55
2022-12-14T04:31:08.763Z,11.95
2022-12-14T04:33:52.095Z,11.75
2022-12-14T04:36:23.423Z,11.20
2022-12-14T04:38:53.720Z,14.82
2022-12-14T04:41:24.186Z,10.75
2022-12-14T04:43:53.211Z,11.80
2022-12-14T04:46:22.032Z,12.55
2022-12-14T04:48:52.006Z,13.35
2022-12-14T04:51:22.809Z,15.10
2022-12-14T04:53:52.220Z,13.05
2022-12-14T04:56:21.559Z,13.18
2022-12-14T04:58:49.323Z,13.63
2022-12-14T05:01:23.925Z,13.13
2022-12-14T05:03:55.291Z,12.40
2022-12-14T05:06:26.709Z,12.48
2022-12-14T05:09:08.524Z,10.85
2022-12-14T05:11:54.531Z,11.32
2022-12-14T05:14:24.581Z,12.52
2022-12-14T05:16:52.003Z,11.63
2022-12-14T05:19:26.088Z,12.60
2022-12-14T05:21:54.764Z,13.57
2022-12-14T05:24:22.105Z,20.13
2022-12-14T05:26:49.434Z,14.50
2022-12-14T05:29:17.686Z,13.23
2022-12-14T05:31:49.069Z,11.48
2022-12-14T05:34:17.300Z,12.80
2022-12-14T05:36:44.597Z,11.48
2022-12-14T05:39:13.275Z,13.73
2022-12-14T05:41:40.643Z,14.30
2022-12-14T05:44:08.119Z,11.90
2022-12-14T05:46:35.409Z,13.13
2022-12-14T05:49:03.093Z,12.25
2022-12-14T05:51:30.452Z,11.82
2022-12-14T05:53:58.103Z,53.83
2022-12-14T05:56:26.745Z,12.20
2022-12-14T05:58:54.309Z,19.85
2022-12-14T06:01:21.691Z,11.13
2022-12-14T06:03:49.055Z,12.27
2022-12-14T06:06:16.363Z,10.07
2022-12-14T06:08:44.650Z,15.88
2022-12-14T06:11:12.549Z,11.45
2022-12-14T06:13:41.763Z,15.60
2022-12-14T06:16:10.359Z,17.35
2022-12-14T06:18:37.918Z,13.20
2022-12-14T06:21:05.723Z,13.30
2022-12-14T06:23:33.025Z,11.00
2022-12-14T06:26:00.361Z,11.18
2022-12-14T06:28:27.742Z,15.38
2022-12-14T06:30:56.475Z,12.57
2022-12-14T06:33:23.760Z,12.10
2022-12-14T06:35:51.120Z,11.48
2022-12-14T06:38:18.635Z,14.10
2022-12-14T06:40:45.961Z,12.82
2022-12-14T06:43:13.671Z,11.70
2022-12-14T06:45:41.196Z,14.70
2022-12-14T06:48:09.907Z,12.70
2022-12-14T06:50:37.238Z,13.20
2022-12-14T06:53:04.619Z,12.63
2022-12-14T06:55:32.884Z,16.73
2022-12-14T06:58:00.326Z,11.85
2022-12-14T07:00:27.796Z,12.68
2022-12-14T07:02:55.274Z,12.25
2022-12-14T07:05:24.033Z,10.65
2022-12-14T07:07:51.367Z,12.57
2022-12-14T07:10:18.765Z,12.52
2022-12-14T07:12:46.090Z,15.73
2022-12-14T07:15:13.385Z,10.75
2022-12-14T07:17:40.849Z,11.30
2022-12-14T07:20:09.280Z,14.25
2022-12-14T07:22:38.714Z,10.30
2022-12-14T07:25:06.494Z,12.20
2022-12-14T07:27:33.816Z,10.15
2022-12-14T07:30:01.116Z,12.35
2022-12-14T07:32:28.446Z,11.73
2022-12-14T07:34:55.791Z,12.57
2022-12-14T07:37:24.060Z,11.63
2022-12-14T07:39:52.756Z,15.48
2022-12-14T07:42:20.294Z,15.52
2022-12-14T07:44:47.667Z,12.43
2022-12-14T07:47:16.682Z,13.50
2022-12-14T07:49:44.990Z,13.88
2022-12-14T07:52:12.274Z,15.07
2022-12-14T07:54:39.584Z,13.93
2022-12-14T07:57:08.204Z,14.57
2022-12-14T07:59:35.512Z,12.63
2022-12-14T08:02:02.983Z,13.82
2022-12-14T08:04:30.515Z,12.73
2022-12-14T08:07:00.836Z,14.30
2022-12-14T08:09:28.173Z,14.07
2022-12-14T08:11:55.457Z,13.10
2022-12-14T08:14:24.114Z,14.68
2022-12-14T08:16:51.512Z,12.77
2022-12-14T08:19:19.792Z,12.55
2022-12-14T08:21:47.300Z,14.70
2022-12-14T08:24:15.119Z,11.45
2022-12-14T08:26:42.440Z,13.02
2022-12-14T08:29:15.283Z,22.42
2022-12-14T08:31:44.151Z,11.40
2022-12-14T08:34:11.523Z,14.30
2022-12-14T08:36:38.819Z,13.18
2022-12-14T08:39:07.068Z,13.20
2022-12-14T08:41:34.763Z,12.88
2022-12-14T08:44:02.738Z,12.13
2022-12-14T08:46:30.816Z,15.82
2022-12-14T08:48:59.809Z,13.55
2022-12-14T08:51:28.230Z,13.98
2022-12-14T08:53:56.205Z,14.57
2022-12-14T08:56:24.357Z,14.77
2022-12-14T08:58:51.667Z,17.30
2022-12-14T09:01:21.430Z,14.15
2022-12-14T09:03:49.853Z,13.43
2022-12-14T09:06:19.819Z,11.95
2022-12-14T09:08:49.696Z,19.02
2022-12-14T09:11:18.845Z,11.20
2022-12-14T09:13:46.567Z,13.05
2022-12-14T09:16:15.144Z,11.75
2022-12-14T09:18:42.672Z,14.00
2022-12-14T09:21:10.479Z,24.85
2022-12-14T09:23:39.804Z,12.85
2022-12-14T09:26:08.146Z,14.40
2022-12-14T09:28:36.404Z,13.63
2022-12-14T09:31:04.728Z,12.93
2022-12-14T09:33:33.070Z,14.93
2022-12-14T09:36:02.481Z,15.23
2022-12-14T09:38:30.572Z,14.45
2022-12-14T09:41:00.520Z,16.70
2022-12-14T09:43:36.920Z,13.82
2022-12-14T09:46:11.804Z,12.55
2022-12-14T09:48:41.392Z,13.77
2022-12-14T09:51:09.537Z,16.70
2022-12-14T09:53:37.221Z,14.18
2022-12-14T09:56:06.900Z,16.67
2022-12-14T09:58:35.165Z,12.40
2022-12-14T10:01:08.774Z,14.57
2022-12-14T10:03:52.910Z,14.23
2022-12-14T10:06:28.811Z,22.45
2022-12-14T10:09:02.864Z,14.57
2022-12-14T10:11:37.440Z,14.50
2022-12-14T10:14:09.328Z,18.67
2022-12-14T10:16:43.847Z,16.58
2022-12-14T10:19:25.915Z,14.32
2022-12-14T10:21:55.680Z,15.57
2022-12-14T10:24:25.947Z,15.27
2022-12-14T10:26:55.944Z,14.52
2022-12-14T10:29:27.598Z,16.45
2022-12-14T10:31:58.550Z,15.52
2022-12-14T10:34:28.943Z,14.95
2022-12-14T10:36:59.383Z,18.50
2022-12-14T10:39:35.160Z,18.95
2022-12-14T10:42:05.956Z,16.85
2022-12-14T10:44:41.011Z,17.00
2022-12-14T10:47:16.664Z,17.80
2022-12-14T10:49:48.357Z,17.13
2022-12-14T10:52:18.526Z,18.13
2022-12-14T10:54:48.156Z,19.70
2022-12-14T10:57:18.975Z,17.60
2022-12-14T11:00:03.422Z,17.15
2022-12-14T11:02:40.998Z,21.90
2022-12-14T11:05:14.713Z,18.00
2022-12-14T11:07:45.822Z,17.13
2022-12-14T11:10:17.503Z,25.13
2022-12-14T11:12:55.955Z,17.42
2022-12-14T11:15:24.358Z,20.48
2022-12-14T11:18:00.375Z,18.83
2022-12-14T11:20:27.810Z,19.48
2022-12-14T11:22:56.729Z,21.30
2022-12-14T11:25:28.958Z,22.63
2022-12-14T11:27:58.023Z,22.02
2022-12-14T11:30:27.772Z,21.83
2022-12-14T11:32:55.352Z,18.48
2022-12-14T11:35:22.715Z,20.70
2022-12-14T11:37:50.314Z,23.80
2022-12-14T11:40:21.867Z,22.88
2022-12-14T11:42:50.380Z,19.20
2022-12-14T11:45:29.073Z,20.55
2022-12-14T11:48:11.319Z,21.45
2022-12-14T11:50:38.645Z,25.95
2022-12-14T11:53:11.140Z,20.20
2022-12-14T11:55:39.959Z,19.75
2022-12-14T11:58:13.431Z,23.00
2022-12-14T12:00:47.347Z,16.80
2022-12-14T12:03:21.489Z,19.52
2022-12-14T12:05:49.342Z,21.75
2022-12-14T12:08:20.052Z,22.73
2022-12-14T12:10:50.888Z,21.48
2022-12-14T12:13:20.516Z,20.08
2022-12-14T12:15:50.455Z,20.83
2022-12-14T12:18:21.415Z,23.50
2022-12-14T12:20:54.134Z,22.85
2022-12-14T12:23:25.882Z,24.17
2022-12-14T12:25:56.390Z,26.65
2022-12-14T12:28:29.186Z,31.30
2022-12-14T12:31:08.982Z,23.80
2022-12-14T12:33:42.384Z,22.35
2022-12-14T12:36:10.032Z,22.77
2022-12-14T12:38:53.146Z,25.23
2022-12-14T12:41:27.528Z,23.50
2022-12-14T12:44:02.362Z,24.33
2022-12-14T12:46:35.909Z,26.90
2022-12-14T12:49:14.574Z,28.65
2022-12-14T12:51:45.666Z,22.95
2022-12-14T12:54:19.753Z,23.30
2022-12-14T12:56:50.959Z,24.17
2022-12-14T12:59:20.321Z,24.50
2022-12-14T13:01:52.406Z,25.42
2022-12-14T13:04:25.680Z,20.75
2022-12-14T13:06:55.033Z,24.73
2022-12-14T13:09:29.292Z,23.38
2022-12-14T13:11:57.625Z,22.20
2022-12-14T13:14:30.362Z,24.58
2022-12-14T13:16:59.289Z,22.85
2022-12-14T13:22:23.888Z,18.50
2022-12-14T13:24:58.893Z,19.20
2022-12-14T13:27:42.497Z,22.88
2022-12-14T13:30:19.554Z,21.27
2022-12-14T13:32:54.034Z,19.35
2022-12-14T13:35:27.535Z,22.63
2022-12-14T13:38:05.032Z,21.88
2022-12-14T13:40:50.538Z,26.98
2022-12-14T13:43:24.379Z,25.10
2022-12-14T13:45:54.255Z,19.47
2022-12-14T13:48:24.853Z,21.65
2022-12-14T13:51:01.476Z,21.13
2022-12-14T13:53:31.044Z,19.88
2022-12-14T13:55:59.282Z,19.77
2022-12-14T13:58:33.315Z,19.40
2022-12-14T14:01:02.785Z,17.80
2022-12-14T14:03:51.486Z,18.55
2022-12-14T14:06:21.551Z,21.40
2022-12-14T14:08:50.683Z,19.65
2022-12-14T14:11:38.394Z,17.30
2022-12-14T14:14:18.034Z,18.10
2022-12-14T14:16:45.880Z,18.02
2022-12-14T14:19:22.598Z,24.90
2022-12-14T14:24:56.906Z,21.65
2022-12-14T14:27:25.480Z,20.73
2022-12-14T14:29:53.227Z,24.52
2022-12-14T14:32:32.192Z,22.00
2022-12-14T14:35:01.602Z,17.65
2022-12-14T14:37:31.729Z,19.40
2022-12-14T14:40:13.242Z,19.52
2022-12-14T14:42:48.828Z,21.67
2022-12-14T14:45:31.865Z,19.10
2022-12-14T14:48:00.228Z,19.25
2022-12-14T14:50:30.982Z,17.23
2022-12-14T14:53:00.282Z,22.13
2022-12-14T14:55:53.322Z,20.92
2022-12-14T14:58:23.820Z,20.67
2022-12-14T15:00:52.972Z,21.00
2022-12-14T15:03:23.013Z,21.10
2022-12-14T15:05:52.086Z,20.95
2022-12-14T15:08:20.983Z,22.45
2022-12-14T15:10:49.509Z,21.63
2022-12-14T15:13:19.591Z,20.77
2022-12-14T15:15:47.527Z,24.05
2022-12-14T15:18:15.381Z,28.35
2022-12-14T15:20:43.106Z,32.63
2022-12-14T15:23:15.295Z,25.95
2022-12-14T15:25:43.126Z,25.98
2022-12-14T15:28:18.653Z,29.63
2022-12-14T15:30:47.520Z,23.35
2022-12-14T15:33:21.489Z,21.33
2022-12-14T15:35:49.562Z,24.08
2022-12-14T15:38:20.853Z,25.30
2022-12-14T15:40:55.097Z,25.63
2022-12-14T15:43:24.412Z,23.73
2022-12-14T15:45:52.993Z,25.15
2022-12-14T15:48:23.064Z,32.58
2022-12-14T15:50:51.768Z,26.25
2022-12-14T15:53:24.045Z,27.23
2022-12-14T15:56:00.337Z,25.67
2022-12-14T15:58:30.374Z,22.35
2022-12-14T16:00:58.975Z,30.10
2022-12-14T16:03:29.170Z,27.60
2022-12-14T16:05:57.669Z,27.80
2022-12-14T16:08:27.192Z,21.45
2022-12-14T16:10:55.628Z,22.92
2022-12-14T16:13:24.679Z,29.30
2022-12-14T16:15:52.836Z,27.55
2022-12-14T16:18:20.408Z,27.77
2022-12-14T16:20:55.913Z,25.83
2022-12-14T16:23:24.395Z,28.10
2022-12-14T16:25:55.146Z,27.48
2022-12-14T16:28:26.911Z,28.45
2022-12-14T16:30:55.980Z,28.65
2022-12-14T16:33:24.138Z,28.70
2022-12-14T16:35:59.864Z,29.42
2022-12-14T16:38:27.181Z,26.88
2022-12-14T16:40:57.319Z,31.70
2022-12-14T16:43:26.567Z,28.23
2022-12-14T16:46:09.264Z,30.05
2022-12-14T16:48:37.908Z,44.10
2022-12-14T16:51:44.399Z,37.30
2022-12-14T16:54:21.808Z,37.10
2022-12-14T16:56:54.124Z,37.70
2022-12-14T16:59:22.926Z,40.35
2022-12-14T17:01:50.899Z,36.20
2022-12-14T17:04:19.547Z,41.38
2022-12-14T17:06:48.548Z,36.00
2022-12-14T17:09:20.247Z,40.83
2022-12-14T17:11:48.798Z,45.50
2022-12-14T17:14:18.382Z,41.00
2022-12-14T17:16:46.587Z,51.17
2022-12-14T17:19:21.231Z,46.30
2022-12-14T17:21:49.708Z,47.08
2022-12-14T17:24:17.824Z,51.63
2022-12-14T17:26:45.189Z,86.72
2022-12-14T17:29:19.012Z,49.72
2022-12-14T17:31:49.923Z,85.32
2022-12-14T17:34:17.950Z,47.47
2022-12-14T17:36:45.688Z,45.90
2022-12-14T17:39:13.464Z,58.42
2022-12-14T17:41:42.571Z,45.50
2022-12-14T17:44:12.671Z,51.53
2022-12-14T17:46:41.555Z,42.65
2022-12-14T17:49:12.093Z,45.75
2022-12-14T17:51:44.804Z,47.33
2022-12-14T17:54:16.410Z,52.65
2022-12-14T17:56:44.143Z,53.50
2022-12-14T17:59:11.477Z,61.42
2022-12-14T18:01:39.522Z,50.33
2022-12-14T18:04:08.561Z,53.85
2022-12-14T18:06:35.970Z,61.53
2022-12-14T18:09:05.395Z,50.30
2022-12-14T18:11:32.816Z,47.83
2022-12-14T18:14:00.385Z,50.03
2022-12-14T18:16:29.320Z,49.88
2022-12-14T18:18:57.975Z,59.15
2022-12-14T18:21:27.758Z,52.55
2022-12-14T18:23:55.401Z,51.67
2022-12-14T18:26:23.719Z,45.63
2022-12-14T18:28:53.080Z,102.18
2022-12-14T18:31:22.535Z,67.85
2022-12-14T18:33:49.929Z,44.45
2022-12-14T18:36:19.723Z,44.20
2022-12-14T18:38:49.368Z,54.47
2022-12-14T18:41:17.719Z,51.42
2022-12-14T18:43:45.125Z,53.45
2022-12-14T18:46:12.656Z,60.88
2022-12-14T18:48:40.433Z,59.92
2022-12-14T18:51:07.802Z,58.55
2022-12-14T18:53:35.276Z,58.63
2022-12-14T18:56:04.835Z,54.92
2022-12-14T18:58:32.245Z,50.08
2022-12-14T19:01:00.449Z,41.63
2022-12-14T19:03:29.283Z,54.70
2022-12-14T19:06:26.596Z,48.90
2022-12-14T19:08:50.556Z,50.00
2022-12-14T19:11:25.015Z,88.07
2022-12-14T19:13:52.460Z,55.25
2022-12-14T19:16:19.853Z,49.45
2022-12-14T19:18:47.426Z,43.78
2022-12-14T19:21:14.752Z,38.47
2022-12-14T19:23:42.308Z,41.15
2022-12-14T19:26:09.747Z,44.92
2022-12-14T19:28:38.608Z,51.05
2022-12-14T19:31:06.189Z,52.53
2022-12-14T19:33:34.135Z,51.63
2022-12-14T19:36:05.123Z,85.00
2022-12-14T19:38:32.638Z,117.07
2022-12-14T19:41:01.799Z,126.57
2022-12-14T19:43:30.019Z,69.35
2022-12-14T19:45:59.269Z,120.65
2022-12-14T19:48:26.732Z,131.38
2022-12-14T19:50:54.200Z,153.40
2022-12-14T19:53:23.731Z,105.47
2022-12-14T19:55:52.399Z,77.75
2022-12-14T19:58:21.725Z,52.67
2022-12-14T20:00:49.740Z,156.85
2022-12-14T20:03:18.491Z,98.10
2022-12-14T20:05:50.140Z,40.55
2022-12-14T20:08:17.635Z,45.40
2022-12-14T20:10:44.948Z,60.25
2022-12-14T20:13:12.291Z,41.15
2022-12-14T20:15:39.799Z,61.22
2022-12-14T20:18:09.937Z,102.18
2022-12-14T20:20:38.873Z,65.78
2022-12-14T20:23:06.256Z,55.28
2022-12-14T20:25:33.594Z,54.17
2022-12-14T20:28:00.956Z,47.35
2022-12-14T20:30:28.986Z,48.55
2022-12-14T20:32:56.331Z,47.20
2022-12-14T20:35:23.921Z,47.95
2022-12-14T20:37:54.578Z,47.38
2022-12-14T20:40:21.964Z,48.33
2022-12-14T20:42:49.309Z,42.72
2022-12-14T20:45:16.614Z,40.83
2022-12-14T20:47:43.933Z,41.40
2022-12-14T20:50:11.362Z,55.33
2022-12-14T20:52:39.220Z,44.17
2022-12-14T20:55:08.315Z,44.83
2022-12-14T20:57:35.734Z,46.72
2022-12-14T21:00:03.479Z,42.55
2022-12-14T21:02:30.973Z,44.00
2022-12-14T21:04:58.394Z,52.78
2022-12-14T21:07:26.488Z,50.03
2022-12-14T21:09:54.044Z,43.88
2022-12-14T21:12:22.787Z,46.33
2022-12-14T21:14:52.330Z,46.92
2022-12-14T21:17:20.228Z,47.53
2022-12-14T21:19:47.571Z,51.97
2022-12-14T21:22:16.076Z,57.60
2022-12-14T21:27:32.397Z,68.60
2022-12-14T21:30:00.255Z,48.38
2022-12-14T21:32:27.600Z,45.67
2022-12-14T21:34:54.939Z,47.78
2022-12-14T21:37:22.353Z,168.05
2022-12-14T21:39:54.499Z,180.20
2022-12-14T21:42:22.287Z,185.07
2022-12-14T21:44:51.841Z,125.68
2022-12-14T21:47:20.200Z,125.35
2022-12-14T21:49:48.009Z,65.93
2022-12-14T21:52:17.858Z,52.92
2022-12-14T21:54:45.241Z,47.15
2022-12-14T21:57:31.693Z,43.95
2022-12-14T22:00:00.539Z,49.50
2022-12-14T22:02:28.140Z,50.55
2022-12-14T22:04:56.547Z,46.38
2022-12-14T22:07:24.771Z,40.47
2022-12-14T22:09:52.142Z,66.70
2022-12-14T22:12:19.469Z,40.53
2022-12-14T22:14:47.275Z,46.67
2022-12-14T22:17:15.952Z,56.83
2022-12-14T22:19:43.392Z,44.15
2022-12-14T22:22:13.307Z,37.00
2022-12-14T22:24:40.773Z,42.47
2022-12-14T22:27:08.140Z,42.05
2022-12-14T22:29:35.828Z,38.25
2022-12-14T22:32:03.211Z,44.08
2022-12-14T22:34:32.019Z,41.80
2022-12-14T22:36:59.345Z,41.90
2022-12-14T22:39:26.807Z,39.25
2022-12-14T22:41:54.143Z,193.18
2022-12-14T22:44:21.443Z,166.02
2022-12-14T22:46:49.810Z,64.50
2022-12-14T22:49:18.330Z,41.13
2022-12-14T22:51:47.019Z,43.88
2022-12-14T22:54:17.972Z,38.25
2022-12-14T22:56:46.701Z,38.67
2022-12-14T22:59:15.585Z,77.13
2022-12-14T23:01:43.456Z,101.20
2022-12-14T23:06:44.403Z,49.53
2022-12-14T23:09:31.108Z,54.92
2022-12-14T23:12:21.265Z,60.88
2022-12-14T23:15:07.033Z,88.22
2022-12-14T23:17:52.180Z,44.38
2022-12-14T23:20:36.940Z,38.58
2022-12-14T23:23:23.474Z,41.75
2022-12-14T23:26:09.665Z,47.85
2022-12-14T23:28:54.537Z,44.95
2022-12-14T23:31:39.529Z,77.45
2022-12-14T23:34:24.266Z,43.42
2022-12-14T23:37:09.065Z,56.55
2022-12-14T23:39:54.565Z,35.28
2022-12-14T23:42:40.612Z,44.97
2022-12-14T23:45:26.158Z,33.58
2022-12-14T23:48:14.113Z,36.90
2022-12-14T23:50:59.814Z,47.83
2022-12-14T23:53:45.041Z,42.42
2022-12-14T23:56:34.827Z,41.55
2022-12-14T23:59:24.930Z,38.30
